Time;durP1;ratioP1;P1;durP2;ratioP2;P2;SDS_P1;SDS_P2;PMS_P1;PMS_P2;Temp;Humidity;BMP_temperature;BMP_pressure;BME280_temperature;BME280_humidity;BME280_pressure;Samples;Min_cycle;Max_cycle;Signal;HPM_P1;HPM_P2
2024/01/06 00:00:10;;;;;;;;;20.00;18.25;;;;;-144.24;100.00;95309.34;5074924;28;45625;-73
2024/01/06 00:02:36;;;;;;;;;21.00;18.25;;;;;-144.24;100.00;95216.06;5070154;28;45890;-72
2024/01/06 00:05:01;;;;;;;;;16.50;16.50;;;;;-144.24;100.00;95070.06;5069870;28;64931;-76
2024/01/06 00:07:26;;;;;;;;;28.50;19.25;;;;;-144.24;100.00;95163.34;5071596;28;63762;-73
2024/01/06 00:09:52;;;;;;;;;22.50;16.00;;;;;-144.24;100.00;94997.06;5053840;28;57900;-73
2024/01/06 00:12:18;;;;;;;;;20.25;16.50;;;;;-144.24;100.00;94978.81;5057105;28;45824;-73
2024/01/06 00:14:45;;;;;;;;;21.25;20.00;;;;;-144.24;100.00;94934.22;5074005;27;46538;-74
2024/01/06 00:17:11;;;;;;;;;27.00;20.75;;;;;-144.24;100.00;94836.91;5076004;27;45519;-72
2024/01/06 00:19:36;;;;;;;;;14.25;14.25;;;;;-144.24;100.00;94757.81;5069826;28;45301;-72
2024/01/06 00:22:01;;;;;;;;;20.50;16.75;;;;;-144.24;100.00;94621.97;5073458;28;72016;-72
2024/01/06 00:24:27;;;;;;;;;24.25;20.50;;;;;-144.24;100.00;94534.78;5056523;28;72044;-73
2024/01/06 00:26:52;;;;;;;;;21.50;17.25;;;;;-144.24;100.00;94591.56;5075321;27;45352;-77
2024/01/06 00:29:18;;;;;;;;;23.25;18.25;;;;;-144.24;100.00;94532.78;5057243;27;45566;-73
2024/01/06 00:31:43;;;;;;;;;24.50;21.25;;;;;-144.24;100.00;94478.03;5069985;28;70271;-72
2024/01/06 00:34:08;;;;;;;;;18.50;18.00;;;;;-144.24;100.00;94419.22;5075887;27;45412;-73
2024/01/06 00:36:34;;;;;;;;;22.75;22.75;;;;;-144.24;100.00;94417.22;5071691;28;45491;-74
2024/01/06 00:38:59;;;;;;;;;27.25;19.75;;;;;-144.24;100.00;94328.00;5071700;27;61256;-73
2024/01/06 00:41:25;;;;;;;;;21.50;17.75;;;;;-144.24;100.00;94317.88;5072988;28;46559;-73
2024/01/06 00:43:50;;;;;;;;;25.75;22.00;;;;;-144.24;100.00;94242.84;5070440;28;45356;-73
2024/01/06 00:46:15;;;;;;;;;24.25;21.00;;;;;-144.24;100.00;94159.75;5074763;28;65934;-73
2024/01/06 00:48:41;;;;;;;;;24.75;24.00;;;;;-144.24;100.00;94196.22;5038801;28;66111;-72
2024/01/06 00:51:07;;;;;;;;;27.75;21.50;;;;;-144.24;100.00;94301.66;5056910;28;46611;-71
2024/01/06 00:53:32;;;;;;;;;25.25;23.50;;;;;-144.24;100.00;94325.97;5064092;28;70202;-74
2024/01/06 00:55:57;;;;;;;;;21.00;18.00;;;;;-144.24;100.00;94186.09;5067723;27;65561;-74
2024/01/06 00:58:23;;;;;;;;;21.75;18.50;;;;;-144.24;100.00;94220.56;5069191;27;45965;-73
2024/01/06 01:00:48;;;;;;;;;25.75;21.00;;;;;-144.24;100.00;94267.19;5078587;27;46647;-75
2024/01/06 01:03:13;;;;;;;;;28.50;20.75;;;;;-144.24;100.00;94232.72;5039416;28;69487;-72
2024/01/06 01:05:39;;;;;;;;;21.00;19.00;;;;;-144.24;100.00;94169.88;5053027;28;63291;-72
2024/01/06 01:08:04;;;;;;;;;20.50;16.75;;;;;-144.24;100.00;94102.97;5072197;28;64716;-72
2024/01/06 01:10:30;;;;;;;;;24.00;21.50;;;;;-144.24;100.00;94261.09;5074789;28;46290;-72
2024/01/06 01:12:55;;;;;;;;;19.50;17.00;;;;;-144.24;100.00;94309.75;5078667;28;47128;-73
2024/01/06 01:15:20;;;;;;;;;21.75;20.50;;;;;-144.24;100.00;94240.84;5059737;28;45405;-72
2024/01/06 01:17:46;;;;;;;;;26.00;20.50;;;;;-144.24;100.00;94109.06;5060097;28;45298;-74
2024/01/06 01:20:11;;;;;;;;;29.50;20.00;;;;;-144.24;100.00;94161.78;5070389;27;64810;-76
2024/01/06 01:22:36;;;;;;;;;19.75;18.25;;;;;-144.24;100.00;94094.88;5076568;27;60190;-73
2024/01/06 01:25:07;;;;;;;;;25.75;21.00;;;;;-144.24;100.00;94102.97;5077724;27;63522;-74
2024/01/06 01:27:32;;;;;;;;;26.00;21.75;;;;;-144.24;100.00;94153.66;5074132;28;45457;-74
2024/01/06 01:29:58;;;;;;;;;20.00;19.75;;;;;-144.24;100.00;94161.78;5072778;27;45770;-72
2024/01/06 01:32:23;;;;;;;;;22.25;19.25;;;;;-144.24;100.00;94271.25;5078211;28;50812;-72
2024/01/06 01:34:48;;;;;;;;;24.50;21.25;;;;;-144.24;100.00;94253.00;5077347;27;52993;-73
2024/01/06 01:37:14;;;;;;;;;20.00;20.00;;;;;-144.24;100.00;94334.09;5075528;28;60679;-73
2024/01/06 01:39:39;;;;;;;;;20.25;17.00;;;;;-144.24;100.00;94370.56;5074419;28;67651;-72
2024/01/06 01:42:04;;;;;;;;;17.00;15.00;;;;;-144.24;100.00;94441.53;5077028;27;45440;-75
2024/01/06 01:44:30;;;;;;;;;19.75;18.50;;;;;-144.24;100.00;94461.81;5060110;28;46328;-75
2024/01/06 01:46:55;;;;;;;;;19.50;12.00;;;;;-144.24;100.00;94362.47;5076766;28;65133;-73
2024/01/06 01:49:21;;;;;;;;;13.75;13.75;;;;;-144.24;100.00;94358.41;5076037;27;45603;-74
2024/01/06 01:51:47;;;;;;;;;14.75;14.00;;;;;-144.24;100.00;94330.03;5077591;28;45393;-72
2024/01/06 01:54:13;;;;;;;;;15.25;12.25;;;;;-144.24;100.00;94398.97;5074610;27;45578;-74
2024/01/06 01:56:39;;;;;;;;;19.25;14.00;;;;;-144.24;100.00;94238.81;5076499;28;51832;-72
2024/01/06 01:59:12;;;;;;;;;14.75;14.75;;;;;-144.24;100.00;94222.59;5058822;28;45748;-72
2024/01/06 02:01:39;;;;;;;;;19.50;14.00;;;;;-144.24;100.00;94242.84;5072347;27;45305;-72
2024/01/06 02:04:04;;;;;;;;;19.25;13.50;;;;;-144.24;100.00;94218.53;5058390;28;45506;-72
2024/01/06 02:06:29;;;;;;;;;14.75;10.25;;;;;-144.24;100.00;94285.44;5077484;27;64052;-72
2024/01/06 02:08:55;;;;;;;;;11.00;11.00;;;;;-144.24;100.00;94119.19;5070053;27;72374;-73
2024/01/06 02:11:20;;;;;;;;;15.00;13.00;;;;;-144.24;100.00;94269.22;5077275;28;53788;-72
2024/01/06 02:13:46;;;;;;;;;14.25;12.00;;;;;-144.24;100.00;94173.94;5058309;28;60458;-73
2024/01/06 02:16:11;;;;;;;;;12.00;10.50;;;;;-144.24;100.00;94182.03;5076849;28;63661;-72
2024/01/06 02:18:36;;;;;;;;;15.25;11.00;;;;;-144.24;100.00;94248.94;5057112;28;67113;-73
2024/01/06 02:21:02;;;;;;;;;14.00;11.50;;;;;-144.24;100.00;94317.88;5059165;28;60613;-72
2024/01/06 02:23:28;;;;;;;;;15.75;11.50;;;;;-144.24;100.00;94027.97;5072360;27;45349;-74
2024/01/06 02:25:54;;;;;;;;;18.00;12.25;;;;;-144.24;100.00;94005.69;5074155;28;45507;-72
2024/01/06 02:28:20;;;;;;;;;15.00;13.50;;;;;-144.24;100.00;94027.97;5056139;28;46691;-72
2024/01/06 02:30:45;;;;;;;;;12.00;10.50;;;;;-144.24;100.00;94092.84;5059668;27;45410;-73
2024/01/06 02:33:10;;;;;;;;;15.75;15.00;;;;;-144.24;100.00;94092.84;5075805;27;45372;-72
2024/01/06 02:35:36;;;;;;;;;9.75;9.75;;;;;-144.24;100.00;94184.06;5076355;27;64380;-71
2024/01/06 02:38:01;;;;;;;;;12.25;11.00;;;;;-144.24;100.00;94113.13;5073042;28;69668;-73
2024/01/06 02:40:27;;;;;;;;;14.50;12.00;;;;;-144.24;100.00;93971.22;5076372;27;45455;-73
2024/01/06 02:42:52;;;;;;;;;11.00;11.00;;;;;-144.24;100.00;94032.03;5075268;27;45472;-72
2024/01/06 02:45:17;;;;;;;;;16.25;14.25;;;;;-144.24;100.00;93815.13;5075092;28;67078;-72
2024/01/06 02:47:43;;;;;;;;;1.00;1.00;;;;;-144.24;100.00;93707.69;5057218;28;72126;-74
2024/01/06 02:50:08;;;;;;;;;14.25;14.00;;;;;-144.24;100.00;93847.56;5075693;27;60915;-73
2024/01/06 02:52:34;;;;;;;;;18.25;15.75;;;;;-144.24;100.00;93725.94;5053838;28;45579;-71
2024/01/06 02:55:00;;;;;;;;;17.75;13.25;;;;;-144.24;100.00;93734.03;5058725;28;64905;-72
2024/01/06 02:57:25;;;;;;;;;16.25;16.00;;;;;-144.24;100.00;93845.53;5058870;28;45876;-75
2024/01/06 02:59:51;;;;;;;;;17.50;11.50;;;;;-144.24;100.00;93727.97;5072161;27;58476;-73
2024/01/06 03:02:16;;;;;;;;;14.50;12.75;;;;;-144.24;100.00;93805.00;5076506;28;61764;-71
2024/01/06 03:04:42;;;;;;;;;11.75;11.00;;;;;-144.24;100.00;93809.03;5072248;28;45584;-72
2024/01/06 03:07:07;;;;;;;;;20.75;16.00;;;;;-144.24;100.00;93677.28;5071997;27;68626;-72
2024/01/06 03:09:32;;;;;;;;;25.50;16.00;;;;;-144.24;100.00;93800.94;5072324;28;70137;-73
2024/01/06 03:11:58;;;;;;;;;21.00;16.50;;;;;-144.24;100.00;93515.13;5077231;28;46247;-72
2024/01/06 03:14:23;;;;;;;;;18.50;17.50;;;;;-144.24;100.00;93594.19;5058872;28;45744;-74
2024/01/06 03:16:48;;;;;;;;;21.75;16.25;;;;;-144.24;100.00;93488.78;5073676;27;63316;-75
2024/01/06 03:19:14;;;;;;;;;22.50;16.75;;;;;-144.24;100.00;93427.97;5073933;27;70601;-72
2024/01/06 03:21:39;;;;;;;;;16.00;16.00;;;;;-144.24;100.00;93464.47;5051561;28;58535;-72
2024/01/06 03:24:06;;;;;;;;;17.50;14.75;;;;;-144.24;100.00;93470.53;5074756;28;59828;-72
2024/01/06 03:26:31;;;;;;;;;18.25;15.75;;;;;-144.24;100.00;93196.91;5058644;28;46054;-72
2024/01/06 03:28:58;;;;;;;;;14.25;14.25;;;;;-144.24;100.00;93247.59;5070667;28;70787;-75
2024/01/06 03:31:23;;;;;;;;;18.75;16.25;;;;;-144.24;100.00;93123.97;5076920;27;45502;-74
2024/01/06 03:33:49;;;;;;;;;20.25;15.00;;;;;-144.24;100.00;93002.34;5075606;27;48383;-72
2024/01/06 03:36:16;;;;;;;;;17.00;15.00;;;;;-144.24;100.00;92971.97;5040316;28;48776;-73
2024/01/06 03:38:42;;;;;;;;;17.00;15.00;;;;;-144.24;100.00;92795.66;5074373;27;45443;-72
2024/01/06 03:41:07;;;;;;;;;21.50;19.75;;;;;-144.24;100.00;92854.41;5071721;27;45297;-71
2024/01/06 03:43:32;;;;;;;;;19.75;15.25;;;;;-144.24;100.00;92761.19;5057246;27;45696;-72
2024/01/06 03:45:59;;;;;;;;;15.25;13.25;;;;;-144.24;100.00;92613.25;5070302;27;63340;-73
2024/01/06 03:48:25;;;;;;;;;15.00;13.75;;;;;-144.24;100.00;92680.13;5075220;27;45451;-72
2024/01/06 03:50:50;;;;;;;;;20.00;17.50;;;;;-144.24;100.00;92534.22;5056396;28;66827;-73
2024/01/06 03:53:15;;;;;;;;;22.25;16.25;;;;;-144.24;100.00;92613.25;5075515;28;45300;-75
2024/01/06 03:55:41;;;;;;;;;17.00;16.75;;;;;-144.24;100.00;92578.81;5074226;28;75029;-72
2024/01/06 03:58:06;;;;;;;;;16.00;14.00;;;;;-144.24;100.00;92564.63;5076063;28;45455;-73
2024/01/06 04:00:31;;;;;;;;;17.50;15.00;;;;;-144.24;100.00;92578.81;5071261;27;58641;-72
2024/01/06 04:02:57;;;;;;;;;19.25;15.00;;;;;-144.24;100.00;92627.44;5053883;28;65669;-73
2024/01/06 04:05:22;;;;;;;;;20.25;16.25;;;;;-144.24;100.00;92578.81;5070318;28;50295;-73
2024/01/06 04:07:47;;;;;;;;;19.00;17.00;;;;;-144.24;100.00;92649.72;5074637;27;69343;-72
2024/01/06 04:10:13;;;;;;;;;20.00;15.25;;;;;-144.24;100.00;92603.13;5074492;27;61099;-71
2024/01/06 04:12:38;;;;;;;;;14.75;14.75;;;;;-144.24;100.00;92542.34;5074644;27;64069;-72
2024/01/06 04:15:04;;;;;;;;;21.75;15.00;;;;;-144.24;100.00;92570.69;5075084;28;70612;-72
2024/01/06 04:17:29;;;;;;;;;23.00;16.75;;;;;-144.24;100.00;92447.09;5074119;27;45447;-71
2024/01/06 04:19:55;;;;;;;;;25.75;16.50;;;;;-144.24;100.00;92550.44;5055202;28;61723;-74
2024/01/06 04:22:20;;;;;;;;;17.25;13.75;;;;;-144.24;100.00;92625.41;5071941;28;67883;-72
2024/01/06 04:24:45;;;;;;;;;17.25;16.00;;;;;-144.24;100.00;92611.22;5071571;28;67974;-73
2024/01/06 04:27:11;;;;;;;;;15.50;14.50;;;;;-144.24;100.00;92629.47;5071639;28;68315;-73
2024/01/06 04:29:36;;;;;;;;;17.50;12.50;;;;;-144.24;100.00;92639.59;5073061;27;58346;-74
2024/01/06 04:32:01;;;;;;;;;17.25;16.00;;;;;-144.24;100.00;92637.56;5074144;27;45432;-70
2024/01/06 04:34:27;;;;;;;;;17.50;15.25;;;;;-144.24;100.00;92771.31;5075654;28;46725;-72
2024/01/06 04:36:52;;;;;;;;;24.75;17.00;;;;;-144.24;100.00;92811.84;5069661;27;45476;-72
2024/01/06 04:39:18;;;;;;;;;18.25;15.00;;;;;-144.24;100.00;92830.09;5069824;28;45222;-76
2024/01/06 04:41:43;;;;;;;;;20.00;16.50;;;;;-144.24;100.00;92826.03;5074780;28;45658;-72
2024/01/06 04:44:08;;;;;;;;;20.25;17.25;;;;;-144.24;100.00;92913.19;5074086;27;69437;-76
2024/01/06 04:46:34;;;;;;;;;18.75;16.50;;;;;-144.24;100.00;92911.16;5056459;27;50273;-72
2024/01/06 04:48:59;;;;;;;;;19.00;15.50;;;;;-144.24;100.00;92953.72;5078611;27;65935;-75
2024/01/06 04:51:24;;;;;;;;;15.75;15.75;;;;;-144.24;100.00;92911.16;5064642;27;45525;-73
2024/01/06 04:53:50;;;;;;;;;17.00;15.25;;;;;-144.24;100.00;92907.09;5077860;27;46762;-73
2024/01/06 04:56:15;;;;;;;;;19.50;16.75;;;;;-144.24;100.00;92826.03;5077163;27;69874;-76
2024/01/06 04:58:40;;;;;;;;;19.00;16.00;;;;;-144.24;100.00;92909.13;5078621;27;61367;-71
2024/01/06 05:01:06;;;;;;;;;19.75;16.75;;;;;-144.24;100.00;92986.16;5078581;27;60869;-76
2024/01/06 05:03:31;;;;;;;;;21.25;19.25;;;;;-144.24;100.00;92874.69;5041906;28;68998;-75
2024/01/06 05:05:56;;;;;;;;;23.00;16.00;;;;;-144.24;100.00;92965.88;5077729;27;69117;-73
2024/01/06 05:08:22;;;;;;;;;18.75;16.00;;;;;-144.24;100.00;92994.25;5079194;28;45410;-75
2024/01/06 05:10:48;;;;;;;;;18.50;14.50;;;;;-144.24;100.00;92811.84;5076447;27;45595;-73
2024/01/06 05:13:14;;;;;;;;;21.00;14.25;;;;;-144.24;100.00;92870.63;5060667;27;46913;-73
2024/01/06 05:15:39;;;;;;;;;20.75;15.25;;;;;-144.24;100.00;92811.84;5059808;27;46594;-73
2024/01/06 05:18:05;;;;;;;;;18.50;16.75;;;;;-144.24;100.00;92917.25;5061286;28;45743;-72
2024/01/06 05:20:30;;;;;;;;;18.25;14.50;;;;;-144.24;100.00;93065.19;5060613;28;45589;-74
2024/01/06 05:22:55;;;;;;;;;21.50;17.00;;;;;-144.24;100.00;93205.03;5077611;27;62344;-74
2024/01/06 05:25:21;;;;;;;;;16.75;15.25;;;;;-144.24;100.00;93409.72;5059366;28;67923;-73
2024/01/06 05:27:46;;;;;;;;;18.00;15.50;;;;;-144.24;100.00;93584.03;5075160;28;66211;-72
2024/01/06 05:30:12;;;;;;;;;17.50;16.25;;;;;-144.24;100.00;93882.03;5077083;27;45461;-72
2024/01/06 05:32:38;;;;;;;;;16.75;14.75;;;;;-144.24;100.00;93985.41;5075778;27;46574;-70
2024/01/06 05:35:04;;;;;;;;;14.50;12.75;;;;;-144.24;100.00;94182.03;5059544;28;45674;-71
2024/01/06 05:37:29;;;;;;;;;20.50;18.00;;;;;-144.24;100.00;94354.34;5060298;28;45722;-72
2024/01/06 05:39:54;;;;;;;;;20.75;15.75;;;;;-144.24;100.00;94261.09;5076645;27;64977;-73
2024/01/06 05:42:20;;;;;;;;;19.00;16.50;;;;;-144.24;100.00;94279.34;5059136;28;47229;-73
2024/01/06 05:44:45;;;;;;;;;15.25;14.50;;;;;-144.24;100.00;94265.16;5058775;28;45412;-74
2024/01/06 05:47:10;;;;;;;;;17.75;13.25;;;;;-144.24;100.00;94311.78;5059444;28;55455;-72
2024/01/06 05:49:36;;;;;;;;;16.50;14.75;;;;;-144.24;100.00;94490.19;5070411;28;61893;-71
2024/01/06 05:52:01;;;;;;;;;16.75;15.00;;;;;-144.24;100.00;94636.16;5076790;28;70515;-75
2024/01/06 05:54:26;;;;;;;;;15.75;14.75;;;;;-144.24;100.00;94656.44;5074405;27;51621;-72
2024/01/06 05:56:52;;;;;;;;;22.00;15.00;;;;;-144.24;100.00;94723.34;5059274;28;45788;-73
2024/01/06 05:59:17;;;;;;;;;17.75;17.25;;;;;-144.24;100.00;94806.47;5058705;28;60877;-72
2024/01/06 06:01:43;;;;;;;;;17.00;13.25;;;;;-144.24;100.00;94885.56;5076503;27;47541;-72
2024/01/06 06:04:09;;;;;;;;;15.75;15.00;;;;;-144.24;100.00;94879.47;5078928;27;45488;-74
2024/01/06 06:06:35;;;;;;;;;16.75;15.00;;;;;-144.24;100.00;94962.59;5077757;27;45439;-74
2024/01/06 06:09:00;;;;;;;;;16.00;14.75;;;;;-144.24;100.00;95033.56;5059098;28;58303;-72
2024/01/06 06:11:25;;;;;;;;;17.50;15.00;;;;;-144.24;100.00;95175.50;5056248;28;46656;-74
2024/01/06 06:13:51;;;;;;;;;19.00;17.50;;;;;-144.24;100.00;95291.09;5072605;28;70317;-72
2024/01/06 06:16:16;;;;;;;;;23.75;19.75;;;;;-144.24;100.00;95319.47;5077778;27;45419;-73
2024/01/06 06:18:41;;;;;;;;;19.00;17.25;;;;;-144.24;100.00;95272.84;5070667;27;63696;-73
2024/01/06 06:21:10;;;;;;;;;18.50;17.25;;;;;-144.24;100.00;95183.63;5075150;28;51571;-72
2024/01/06 06:23:36;;;;;;;;;22.50;16.00;;;;;-144.24;100.00;95134.97;5077281;28;45453;-73
2024/01/06 06:26:08;;;;;;;;;21.00;19.75;;;;;-144.24;100.00;95082.22;5076601;28;45463;-74
2024/01/06 06:28:34;;;;;;;;;23.75;19.00;;;;;-144.24;100.00;94954.50;5059073;28;45460;-73
2024/01/06 06:31:01;;;;;;;;;22.75;19.00;;;;;-144.24;100.00;94788.22;5058012;27;45841;-72
2024/01/06 06:33:26;;;;;;;;;24.00;19.75;;;;;-144.24;100.00;94741.59;5059047;28;45321;-74
2024/01/06 06:35:52;;;;;;;;;19.00;16.25;;;;;-144.24;100.00;94697.00;5057500;27;50951;-75
2024/01/06 06:38:17;;;;;;;;;30.25;24.25;;;;;-144.24;100.00;94638.19;5078695;27;45578;-73
2024/01/06 06:40:42;;;;;;;;;36.25;28.00;;;;;-144.24;100.00;94555.06;5076470;27;45777;-74
2024/01/06 06:43:08;;;;;;;;;28.75;24.75;;;;;-144.24;100.00;94463.84;5072587;27;65901;-75
2024/01/06 06:45:34;;;;;;;;;35.00;28.00;;;;;-144.24;100.00;94419.22;5076827;27;45472;-71
2024/01/06 06:47:59;;;;;;;;;30.50;24.50;;;;;-144.24;100.00;94500.31;5057116;28;45511;-73
2024/01/06 06:50:24;;;;;;;;;28.50;23.50;;;;;-144.24;100.00;94403.00;5041373;28;74147;-71
2024/01/06 06:52:50;;;;;;;;;33.00;24.00;;;;;-144.24;100.00;94471.94;5076058;28;64379;-72
2024/01/06 06:55:15;;;;;;;;;27.50;19.00;;;;;-144.24;100.00;94469.91;5075112;27;45238;-73
2024/01/06 06:57:41;;;;;;;;;18.25;18.25;;;;;-144.24;100.00;94384.78;5076199;28;52404;-73
2024/01/06 07:00:09;;;;;;;;;20.25;18.75;;;;;-144.24;100.00;94516.56;5057930;28;68326;-75
2024/01/06 07:02:35;;;;;;;;;23.00;16.50;;;;;-144.24;100.00;94459.78;5076357;27;45466;-73
2024/01/06 07:05:00;;;;;;;;;23.50;21.00;;;;;-144.24;100.00;94480.06;5075686;27;45375;-74
2024/01/06 07:07:26;;;;;;;;;18.25;16.75;;;;;-144.24;100.00;94443.56;5076096;28;45273;-72
2024/01/06 07:09:51;;;;;;;;;19.50;15.50;;;;;-144.24;100.00;94378.69;5075531;28;71531;-74
2024/01/06 07:12:16;;;;;;;;;19.00;16.25;;;;;-144.24;100.00;94244.88;5070976;27;69903;-75
2024/01/06 07:14:42;;;;;;;;;25.50;16.75;;;;;-144.24;100.00;94340.16;5072402;28;61374;-74
2024/01/06 07:17:08;;;;;;;;;20.50;16.50;;;;;-144.24;100.00;94224.59;5076148;27;63855;-73
2024/01/06 07:19:34;;;;;;;;;11.25;6.75;;;;;-144.24;100.00;94216.50;5071655;27;46467;-73
2024/01/06 07:21:59;;;;;;;;;17.25;16.75;;;;;-144.24;100.00;94340.16;5058524;28;45420;-72
2024/01/06 07:24:25;;;;;;;;;20.00;17.50;;;;;-144.24;100.00;94319.91;5077366;28;46262;-72
2024/01/06 07:26:51;;;;;;;;;17.50;14.75;;;;;-144.24;100.00;94285.44;5070328;28;46816;-72
2024/01/06 07:29:16;;;;;;;;;16.25;11.75;;;;;-144.24;100.00;94218.53;5057627;28;46011;-73
2024/01/06 07:31:41;;;;;;;;;14.25;12.50;;;;;-144.24;100.00;94279.34;5057018;28;45512;-72
2024/01/06 07:34:07;;;;;;;;;15.25;14.75;;;;;-144.24;100.00;94216.50;5073693;28;61322;-73
2024/01/06 07:36:32;;;;;;;;;15.25;11.75;;;;;-144.24;100.00;94200.28;5073288;28;66589;-73
2024/01/06 07:38:57;;;;;;;;;15.50;15.50;;;;;-144.24;100.00;94192.19;5078983;27;45671;-71
2024/01/06 07:41:23;;;;;;;;;20.75;16.75;;;;;-144.24;100.00;94234.75;5075209;28;47501;-75
2024/01/06 07:43:48;;;;;;;;;16.25;15.25;;;;;-144.24;100.00;94169.88;5075182;28;45262;-73
2024/01/06 07:46:15;;;;;;;;;9.25;7.00;;;;;-144.24;100.00;94208.41;5073102;28;45552;-72
2024/01/06 07:48:40;;;;;;;;;17.75;13.00;;;;;-144.24;100.00;94173.94;5057421;28;45587;-72
2024/01/06 07:51:06;;;;;;;;;17.75;15.75;;;;;-144.24;100.00;94277.31;5070376;28;47433;-71
2024/01/06 07:53:31;;;;;;;;;19.75;14.75;;;;;-144.24;100.00;94307.72;5075872;28;45477;-72
2024/01/06 07:55:56;;;;;;;;;20.00;12.00;;;;;-144.24;100.00;94311.78;5073904;28;62807;-73
2024/01/06 07:58:22;;;;;;;;;17.00;14.00;;;;;-144.24;100.00;94336.13;5055799;28;45676;-72
2024/01/06 08:00:47;;;;;;;;;8.25;8.25;;;;;-144.24;100.00;94354.34;5068656;27;66120;-71
2024/01/06 08:03:13;;;;;;;;;13.25;12.00;;;;;-144.24;100.00;94350.31;5066494;28;45457;-72
2024/01/06 08:05:38;;;;;;;;;15.00;11.75;;;;;-144.24;100.00;94386.78;5075272;28;45440;-72
2024/01/06 08:08:05;;;;;;;;;17.75;10.75;;;;;-144.24;100.00;94392.88;5075666;27;64455;-73
2024/01/06 08:10:31;;;;;;;;;13.75;12.25;;;;;-144.24;100.00;94469.91;5055927;28;45588;-72
2024/01/06 08:12:56;;;;;;;;;12.00;11.25;;;;;-144.24;100.00;94476.00;5075365;28;45496;-73
2024/01/06 08:15:21;;;;;;;;;15.50;12.50;;;;;-144.24;100.00;94607.78;5074882;28;45476;-74
2024/01/06 08:17:47;;;;;;;;;12.50;12.50;;;;;-144.24;100.00;94666.59;5074706;28;67812;-72
2024/01/06 08:20:12;;;;;;;;;12.00;12.00;;;;;-144.24;100.00;94721.31;5057066;28;45500;-72
2024/01/06 08:22:38;;;;;;;;;13.25;12.00;;;;;-144.24;100.00;94784.19;5070658;27;45389;-71
2024/01/06 08:25:06;;;;;;;;;6.50;6.00;;;;;-144.24;100.00;94881.50;5037942;28;45549;-72
2024/01/06 08:27:31;;;;;;;;;12.25;11.25;;;;;-144.24;100.00;94964.63;5053975;27;46851;-74
2024/01/06 08:29:56;;;;;;;;;11.25;11.25;;;;;-144.24;100.00;95118.72;5073775;27;46001;-74
2024/01/06 08:32:22;;;;;;;;;16.50;10.50;;;;;-144.24;100.00;95299.22;5071356;27;61258;-74
2024/01/06 08:34:47;;;;;;;;;6.00;6.00;;;;;-144.24;100.00;95619.59;5074015;27;45682;-75
2024/01/06 08:37:13;;;;;;;;;7.00;7.00;;;;;-144.24;100.00;95601.34;5074731;28;47013;-73
2024/01/06 08:39:38;;;;;;;;;7.50;6.75;;;;;-144.24;100.00;95645.97;5080972;27;45668;-74
2024/01/06 08:42:04;;;;;;;;;27.50;24.25;;;;;-144.24;100.00;95860.94;5074759;27;57057;-74
2024/01/06 08:44:29;;;;;;;;;20.50;14.00;;;;;-144.24;100.00;95921.78;5075108;28;45550;-73
2024/01/06 08:46:54;;;;;;;;;11.50;8.25;;;;;-144.24;100.00;96157.06;5055519;27;72519;-74
2024/01/06 08:49:20;;;;;;;;;7.00;7.00;;;;;-144.24;100.00;96240.22;5073276;28;70675;-74
2024/01/06 08:51:45;;;;;;;;;9.50;6.75;;;;;-144.24;100.00;96493.75;5075761;27;45311;-74
2024/01/06 08:54:10;;;;;;;;;7.00;7.00;;;;;-144.24;100.00;96631.69;5074887;27;63505;-73
2024/01/06 08:56:36;;;;;;;;;5.50;5.50;;;;;-144.24;100.00;96591.13;5074860;28;69154;-74
2024/01/06 08:59:01;;;;;;;;;8.00;6.50;;;;;-144.24;100.00;96666.19;5075256;28;45455;-75
2024/01/06 09:01:27;;;;;;;;;7.50;6.75;;;;;-144.24;100.00;96729.06;5074413;27;62677;-72
2024/01/06 09:03:52;;;;;;;;;7.00;6.50;;;;;-144.24;100.00;96785.84;5081332;27;59274;-72
2024/01/06 09:06:17;;;;;;;;;45.00;36.00;;;;;-144.24;100.00;96885.25;5075294;27;46663;-73
2024/01/06 09:08:43;;;;;;;;;6.00;6.00;;;;;-144.24;100.00;97045.53;5071368;28;62113;-71
2024/01/06 09:11:08;;;;;;;;;5.75;5.75;;;;;-144.24;100.00;97317.38;5072804;28;64319;-73
2024/01/06 09:13:33;;;;;;;;;10.75;9.50;;;;;-144.24;100.00;97343.75;5073978;28;65563;-73
2024/01/06 09:16:00;;;;;;;;;10.00;6.25;;;;;-144.24;100.00;97406.63;5046912;28;46426;-69
2024/01/06 09:18:26;;;;;;;;;7.75;7.75;;;;;-144.24;100.00;97548.66;5074353;28;45326;-70
2024/01/06 09:20:52;;;;;;;;;12.00;8.00;;;;;-144.24;100.00;97664.31;5053282;27;45325;-71
2024/01/06 09:23:17;;;;;;;;;10.00;6.50;;;;;-144.24;100.00;97899.69;5074652;27;45322;-73
2024/01/06 09:25:42;;;;;;;;;10.50;8.00;;;;;-144.24;100.00;97913.88;5074757;28;46599;-70
2024/01/06 09:28:08;;;;;;;;;14.00;7.50;;;;;-144.24;100.00;98112.75;5072509;28;62685;-70
2024/01/06 09:30:33;;;;;;;;;9.75;9.25;;;;;-144.24;100.00;98301.47;5076021;27;63557;-72
2024/01/06 09:32:58;;;;;;;;;16.00;11.00;;;;;-144.24;100.00;98266.97;5077157;27;45473;-72
2024/01/06 09:35:24;;;;;;;;;11.25;8.00;;;;;-144.24;100.00;98315.66;5078407;27;45932;-71
2024/01/06 09:37:49;;;;;;;;;9.00;6.25;;;;;-144.24;100.00;98500.34;5067678;22;45438;-71
2024/01/06 09:40:21;;;;;;;;;6.50;6.50;;;;;-144.24;100.00;98587.59;5075172;27;45732;-71
2024/01/06 09:42:46;;;;;;;;;7.75;7.50;;;;;-144.24;100.00;98693.13;5056858;28;45992;-72
2024/01/06 09:45:11;;;;;;;;;10.75;7.00;;;;;-144.24;100.00;98597.75;5073981;27;46328;-71
2024/01/06 09:47:40;;;;;;;;;7.75;7.75;;;;;-144.24;100.00;98630.22;5056939;28;67648;-72
2024/01/06 09:50:09;;;;;;;;;284.25;242.50;;;;;-144.24;100.00;98806.78;5060060;28;45463;-70
2024/01/06 09:52:40;;;;;;;;;14.00;12.75;;;;;-144.24;100.00;98857.53;5041062;28;45499;-71
2024/01/06 09:55:10;;;;;;;;;5.00;4.25;;;;;-144.24;100.00;99139.66;5039836;28;46256;-72
2024/01/06 09:57:35;;;;;;;;;9.25;6.75;;;;;-144.24;100.00;99448.19;5058247;28;46846;-71
2024/01/06 10:00:02;;;;;;;;;1.25;1.25;;;;;-144.24;100.00;99837.94;5038652;28;64159;-71
2024/01/06 10:02:27;;;;;;;;;4.00;4.00;;;;;-144.24;100.00;100020.66;5057198;28;45663;-73
2024/01/06 10:04:52;;;;;;;;;5.50;5.50;;;;;-144.24;100.00;100146.53;5056088;28;70976;-71
2024/01/06 10:07:18;;;;;;;;;6.00;6.00;;;;;-144.24;100.00;100359.69;5056415;28;69403;-74
2024/01/06 10:09:43;;;;;;;;;3.50;3.50;;;;;-144.24;100.00;100390.16;5036927;28;62995;-74
2024/01/06 10:12:09;;;;;;;;;7.00;5.50;;;;;-144.24;100.00;100499.78;5057665;28;45289;-73
2024/01/06 10:14:35;;;;;;;;;10.25;10.25;;;;;-144.24;100.00;100418.59;5055586;28;46879;-74
2024/01/06 10:17:01;;;;;;;;;20.75;18.75;;;;;-144.24;100.00;100420.63;5055464;28;45456;-74
2024/01/06 10:19:26;;;;;;;;;2.00;2.00;;;;;-144.24;100.00;100229.75;5055514;28;51836;-74
2024/01/06 10:21:51;;;;;;;;;6.00;3.25;;;;;-144.24;100.00;100572.91;5055725;28;57838;-73
2024/01/06 10:24:18;;;;;;;;;4.00;4.00;;;;;-144.24;100.00;101342.50;5037851;28;70747;-74
2024/01/06 10:26:45;;;;;;;;;3.50;3.25;;;;;-144.24;100.00;101708.06;5056930;28;45484;-76
2024/01/06 10:29:11;;;;;;;;;6.00;2.00;;;;;-144.24;100.00;102087.88;5039969;28;45587;-74
2024/01/06 10:31:36;;;;;;;;;7.50;4.00;;;;;-144.24;100.00;102951.25;5055385;28;46580;-75
2024/01/06 10:34:02;;;;;;;;;6.00;3.75;;;;;-144.24;100.00;103520.13;5037356;28;59240;-74
2024/01/06 10:36:28;;;;;;;;;3.00;2.00;;;;;-144.24;100.00;103853.38;5054200;28;46970;-77
2024/01/06 10:38:54;;;;;;;;;4.00;4.00;;;;;-144.24;100.00;104233.41;5039237;28;45400;-74
2024/01/06 10:41:20;;;;;;;;;4.00;2.33;;;;;-144.24;100.00;104654.09;5035938;28;63551;-75
2024/01/06 10:43:46;;;;;;;;;4.00;3.00;;;;;-144.24;100.00;105200.88;5033618;28;67462;-77
2024/01/06 10:46:13;;;;;;;;;4.00;4.00;;;;;-144.24;100.00;105831.09;5038279;28;45482;-74
2024/01/06 10:48:42;;;;;;;;;4.67;4.67;;;;;-144.24;100.00;106266.19;5055305;28;45368;-77